Schedule Details


Flight Number: CTN385
Departure: Fiumicino (LIRF) at 18:00
Arrival: Cilipi (LDDU) at 19:25
Route: OKUNO UL5 ATRUP UM169 KATTI M169 AMUGO

Weather Information
LIRF 191020Z 14003KT 050V210 6000 R16L/1400N R16R/P1500N R25/P1500N R34R/1300N FEW005 BKN009 12/11 Q1022 NOSIG
LDDU 191030Z 17007KT 9999 FEW023 BKN050 13/09 Q1019 BECMG 14008KT
Schedule Frequency

Route Map